sensor_id;sensor_type;location;lat;lon;timestamp;pressure;altitude;pressure_sealevel;temperature;humidity
63903;BME280;50072;50.678;13.938;2022-09-06T00:00:13;100019.16;;;17.25;80.95
63903;BME280;50072;50.678;13.938;2022-09-06T00:02:54;100013.88;;;17.22;81.44
63903;BME280;50072;50.678;13.938;2022-09-06T00:05:20;100013.22;;;17.17;81.29
63903;BME280;50072;50.678;13.938;2022-09-06T00:07:48;100010.81;;;17.11;82.34
63903;BME280;50072;50.678;13.938;2022-09-06T00:10:14;100009.03;;;17.10;82.16
63903;BME280;50072;50.678;13.938;2022-09-06T00:12:40;100011.75;;;17.10;81.43
63903;BME280;50072;50.678;13.938;2022-09-06T00:15:07;100011.81;;;17.08;81.54
63903;BME280;50072;50.678;13.938;2022-09-06T00:17:33;100008.31;;;17.06;82.00
63903;BME280;50072;50.678;13.938;2022-09-06T00:19:59;100012.84;;;17.05;82.02
63903;BME280;50072;50.678;13.938;2022-09-06T00:22:26;100012.84;;;17.05;82.25
63903;BME280;50072;50.678;13.938;2022-09-06T00:24:52;100013.78;;;17.04;82.27
63903;BME280;50072;50.678;13.938;2022-09-06T00:27:18;100013.84;;;17.03;82.75
63903;BME280;50072;50.678;13.938;2022-09-06T00:29:44;100007.72;;;16.99;82.31
63903;BME280;50072;50.678;13.938;2022-09-06T00:32:11;100016.78;;;16.98;82.04
63903;BME280;50072;50.678;13.938;2022-09-06T00:34:37;100009.59;;;16.97;82.72
63903;BME280;50072;50.678;13.938;2022-09-06T00:37:03;100006.97;;;16.96;82.18
63903;BME280;50072;50.678;13.938;2022-09-06T00:39:29;100009.91;;;16.91;82.54
63903;BME280;50072;50.678;13.938;2022-09-06T00:41:56;100018.94;;;16.90;82.67
63903;BME280;50072;50.678;13.938;2022-09-06T00:44:22;100007.44;;;16.85;82.58
63903;BME280;50072;50.678;13.938;2022-09-06T00:46:49;100004.63;;;16.88;82.60
63903;BME280;50072;50.678;13.938;2022-09-06T00:49:21;100009.25;;;16.84;82.89
63903;BME280;50072;50.678;13.938;2022-09-06T00:52:00;100011.09;;;16.84;82.54
63903;BME280;50072;50.678;13.938;2022-09-06T00:54:26;100004.97;;;16.80;82.37
63903;BME280;50072;50.678;13.938;2022-09-06T00:56:53;100012.31;;;16.77;82.10
63903;BME280;50072;50.678;13.938;2022-09-06T00:59:20;100018.81;;;16.72;82.04
63903;BME280;50072;50.678;13.938;2022-09-06T01:01:46;100018.13;;;16.67;82.49
63903;BME280;50072;50.678;13.938;2022-09-06T01:04:12;100016.53;;;16.63;82.37
63903;BME280;50072;50.678;13.938;2022-09-06T01:12:13;100017.88;;;16.53;82.86
63903;BME280;50072;50.678;13.938;2022-09-06T01:14:58;100013.44;;;16.52;82.52
63903;BME280;50072;50.678;13.938;2022-09-06T01:18:06;100011.81;;;16.48;82.86
63903;BME280;50072;50.678;13.938;2022-09-06T01:23:28;100009.56;;;16.37;83.75
63903;BME280;50072;50.678;13.938;2022-09-06T01:28:44;100012.47;;;16.32;83.73
63903;BME280;50072;50.678;13.938;2022-09-06T01:31:30;100014.25;;;16.33;83.71
63903;BME280;50072;50.678;13.938;2022-09-06T01:36:43;100023.28;;;16.32;84.67
63903;BME280;50072;50.678;13.938;2022-09-06T01:39:34;100018.75;;;16.33;84.83
63903;BME280;50072;50.678;13.938;2022-09-06T01:42:12;100016.19;;;16.30;84.47
63903;BME280;50072;50.678;13.938;2022-09-06T01:44:44;100022.44;;;16.30;84.78
63903;BME280;50072;50.678;13.938;2022-09-06T01:47:19;100014.34;;;16.30;84.20
63903;BME280;50072;50.678;13.938;2022-09-06T02:00:07;100000.19;;;16.25;84.16
63903;BME280;50072;50.678;13.938;2022-09-06T02:05:41;100008.28;;;16.25;84.15
63903;BME280;50072;50.678;13.938;2022-09-06T02:08:16;100006.50;;;16.24;84.91
63903;BME280;50072;50.678;13.938;2022-09-06T02:10:57;100009.16;;;16.26;84.42
63903;BME280;50072;50.678;13.938;2022-09-06T02:13:25;100019.16;;;16.24;84.06
63903;BME280;50072;50.678;13.938;2022-09-06T02:16:00;100025.69;;;16.18;84.10
63903;BME280;50072;50.678;13.938;2022-09-06T02:18:32;100023.13;;;16.15;83.98
63903;BME280;50072;50.678;13.938;2022-09-06T02:21:01;100013.25;;;16.14;84.36
63903;BME280;50072;50.678;13.938;2022-09-06T02:23:32;100011.28;;;16.17;84.60
63903;BME280;50072;50.678;13.938;2022-09-06T02:28:37;100009.34;;;16.21;84.68
63903;BME280;50072;50.678;13.938;2022-09-06T02:31:09;100011.06;;;16.24;85.25
63903;BME280;50072;50.678;13.938;2022-09-06T02:33:37;100015.44;;;16.26;84.36
63903;BME280;50072;50.678;13.938;2022-09-06T02:36:07;100004.88;;;16.20;84.44
63903;BME280;50072;50.678;13.938;2022-09-06T02:38:37;100019.09;;;16.25;85.01
63903;BME280;50072;50.678;13.938;2022-09-06T02:41:05;100010.09;;;16.25;85.07
63903;BME280;50072;50.678;13.938;2022-09-06T02:43:31;100009.22;;;16.24;84.55
63903;BME280;50072;50.678;13.938;2022-09-06T02:45:58;100008.34;;;16.24;84.27
63903;BME280;50072;50.678;13.938;2022-09-06T02:48:24;100013.81;;;16.22;84.16
63903;BME280;50072;50.678;13.938;2022-09-06T02:50:50;100015.56;;;16.23;85.11
63903;BME280;50072;50.678;13.938;2022-09-06T02:53:17;100013.69;;;16.25;84.67
63903;BME280;50072;50.678;13.938;2022-09-06T02:55:45;100018.00;;;16.29;84.26
63903;BME280;50072;50.678;13.938;2022-09-06T02:58:11;100019.75;;;16.30;84.63
63903;BME280;50072;50.678;13.938;2022-09-06T03:00:37;100017.94;;;16.31;84.44
63903;BME280;50072;50.678;13.938;2022-09-06T03:03:03;100019.72;;;16.32;84.39
63903;BME280;50072;50.678;13.938;2022-09-06T03:05:29;100010.72;;;16.31;84.28
63903;BME280;50072;50.678;13.938;2022-09-06T03:07:55;100010.72;;;16.31;84.59
63903;BME280;50072;50.678;13.938;2022-09-06T03:10:22;100007.22;;;16.29;84.48
63903;BME280;50072;50.678;13.938;2022-09-06T03:12:49;100007.22;;;16.29;84.93
63903;BME280;50072;50.678;13.938;2022-09-06T03:15:15;100011.63;;;16.30;84.67
63903;BME280;50072;50.678;13.938;2022-09-06T03:17:42;100015.25;;;16.31;84.77
63903;BME280;50072;50.678;13.938;2022-09-06T03:20:09;100007.22;;;16.29;84.79
63903;BME280;50072;50.678;13.938;2022-09-06T03:22:36;100013.69;;;16.25;84.40
63903;BME280;50072;50.678;13.938;2022-09-06T03:25:04;100008.41;;;16.22;84.48
63903;BME280;50072;50.678;13.938;2022-09-06T03:27:30;100010.22;;;16.21;84.26
63903;BME280;50072;50.678;13.938;2022-09-06T03:29:57;100016.59;;;16.20;84.34
63903;BME280;50072;50.678;13.938;2022-09-06T03:32:23;100007.59;;;16.20;84.53
63903;BME280;50072;50.678;13.938;2022-09-06T03:34:49;100012.13;;;16.19;84.44
63903;BME280;50072;50.678;13.938;2022-09-06T03:37:15;100006.84;;;16.16;84.02
63903;BME280;50072;50.678;13.938;2022-09-06T03:39:41;100003.25;;;16.16;84.04
63903;BME280;50072;50.678;13.938;2022-09-06T03:42:08;100007.00;;;16.13;84.60
63903;BME280;50072;50.678;13.938;2022-09-06T03:44:34;99999.06;;;16.09;84.95
63903;BME280;50072;50.678;13.938;2022-09-06T03:47:00;100000.75;;;16.11;84.83
63903;BME280;50072;50.678;13.938;2022-09-06T03:49:26;99999.06;;;16.09;84.96
63903;BME280;50072;50.678;13.938;2022-09-06T03:51:51;99990.97;;;16.09;85.12
63903;BME280;50072;50.678;13.938;2022-09-06T03:54:17;99990.03;;;16.10;84.90
63903;BME280;50072;50.678;13.938;2022-09-06T03:56:43;99986.41;;;16.11;84.78
63903;BME280;50072;50.678;13.938;2022-09-06T03:59:09;99985.50;;;16.10;84.31
63903;BME280;50072;50.678;13.938;2022-09-06T04:01:34;99979.09;;;16.13;84.47
63903;BME280;50072;50.678;13.938;2022-09-06T04:04:00;99974.69;;;16.10;84.54
63903;BME280;50072;50.678;13.938;2022-09-06T04:06:27;99979.16;;;16.11;85.13
63903;BME280;50072;50.678;13.938;2022-09-06T04:08:52;99978.22;;;16.12;85.50
63903;BME280;50072;50.678;13.938;2022-09-06T04:11:18;99991.81;;;16.11;84.75
63903;BME280;50072;50.678;13.938;2022-09-06T04:13:44;99987.47;;;16.07;84.90
63903;BME280;50072;50.678;13.938;2022-09-06T04:16:10;99987.47;;;16.07;84.55
63903;BME280;50072;50.678;13.938;2022-09-06T04:18:36;99996.50;;;16.05;84.80
63903;BME280;50072;50.678;13.938;2022-09-06T04:21:02;99995.72;;;16.03;85.25
63903;BME280;50072;50.678;13.938;2022-09-06T04:23:28;99987.75;;;16.00;84.61
63903;BME280;50072;50.678;13.938;2022-09-06T04:25:56;99980.50;;;16.01;84.45
63903;BME280;50072;50.678;13.938;2022-09-06T04:28:22;99974.34;;;15.97;85.25
63903;BME280;50072;50.678;13.938;2022-09-06T04:30:57;99984.34;;;15.95;86.38
63903;BME280;50072;50.678;13.938;2022-09-06T04:33:23;99982.72;;;15.91;86.13
63903;BME280;50072;50.678;13.938;2022-09-06T04:35:53;99985.41;;;15.91;86.29
63903;BME280;50072;50.678;13.938;2022-09-06T04:38:22;99980.16;;;15.88;85.38
63903;BME280;50072;50.678;13.938;2022-09-06T04:40:48;99976.53;;;15.89;85.92
63903;BME280;50072;50.678;13.938;2022-09-06T04:43:14;99969.50;;;15.85;85.92
63903;BME280;50072;50.678;13.938;2022-09-06T04:45:41;99970.41;;;15.84;85.69
63903;BME280;50072;50.678;13.938;2022-09-06T04:48:07;99975.81;;;15.84;85.97
63903;BME280;50072;50.678;13.938;2022-09-06T04:50:33;99973.13;;;15.84;85.79
63903;BME280;50072;50.678;13.938;2022-09-06T04:52:58;99972.34;;;15.80;86.49
63903;BME280;50072;50.678;13.938;2022-09-06T04:55:24;99974.13;;;15.81;86.52
63903;BME280;50072;50.678;13.938;2022-09-06T04:57:54;99975.13;;;15.79;86.83
63903;BME280;50072;50.678;13.938;2022-09-06T05:00:21;99975.97;;;15.81;86.83
63903;BME280;50072;50.678;13.938;2022-09-06T05:02:47;99973.31;;;15.79;87.13
63903;BME280;50072;50.678;13.938;2022-09-06T05:05:13;99976.75;;;15.83;86.57
63903;BME280;50072;50.678;13.938;2022-09-06T05:07:38;99979.44;;;15.83;86.71
63903;BME280;50072;50.678;13.938;2022-09-06T05:10:04;99977.66;;;15.83;86.71
63903;BME280;50072;50.678;13.938;2022-09-06T05:12:30;99985.91;;;15.79;86.85
63903;BME280;50072;50.678;13.938;2022-09-06T05:14:56;99990.41;;;15.78;86.94
63903;BME280;50072;50.678;13.938;2022-09-06T05:17:22;99985.81;;;15.82;86.57
63903;BME280;50072;50.678;13.938;2022-09-06T05:19:47;99981.16;;;15.85;86.45
63903;BME280;50072;50.678;13.938;2022-09-06T05:22:13;99981.16;;;15.85;86.91
63903;BME280;50072;50.678;13.938;2022-09-06T05:24:39;99995.28;;;15.92;87.22
63903;BME280;50072;50.678;13.938;2022-09-06T05:27:06;99998.53;;;16.00;87.43
63903;BME280;50072;50.678;13.938;2022-09-06T05:29:32;99989.22;;;16.08;87.86
63903;BME280;50072;50.678;13.938;2022-09-06T05:31:58;99999.75;;;16.14;87.21
63903;BME280;50072;50.678;13.938;2022-09-06T05:34:24;99994.09;;;16.20;88.08
63903;BME280;50072;50.678;13.938;2022-09-06T05:36:49;99987.28;;;16.32;87.60
63903;BME280;50072;50.678;13.938;2022-09-06T05:39:16;99990.44;;;16.42;87.00
63903;BME280;50072;50.678;13.938;2022-09-06T05:41:45;99988.22;;;16.51;86.19
63903;BME280;50072;50.678;13.938;2022-09-06T05:44:11;99998.41;;;16.65;86.46
63903;BME280;50072;50.678;13.938;2022-09-06T05:46:44;99994.34;;;16.76;85.71
63903;BME280;50072;50.678;13.938;2022-09-06T05:49:11;99994.88;;;16.84;86.09
63903;BME280;50072;50.678;13.938;2022-09-06T05:51:39;99999.84;;;16.95;85.48
63903;BME280;50072;50.678;13.938;2022-09-06T05:54:05;100003.94;;;17.03;84.97
63903;BME280;50072;50.678;13.938;2022-09-06T05:56:30;100001.75;;;17.12;84.50
63903;BME280;50072;50.678;13.938;2022-09-06T05:58:56;100016.81;;;17.17;84.50
63903;BME280;50072;50.678;13.938;2022-09-06T06:01:27;100004.84;;;17.23;84.27
63903;BME280;50072;50.678;13.938;2022-09-06T06:03:55;100010.09;;;17.26;83.50
63903;BME280;50072;50.678;13.938;2022-09-06T06:06:24;100004.38;;;17.32;82.98
63903;BME280;50072;50.678;13.938;2022-09-06T06:08:50;100005.06;;;17.37;82.63
63903;BME280;50072;50.678;13.938;2022-09-06T06:11:16;100000.44;;;17.39;82.51
63903;BME280;50072;50.678;13.938;2022-09-06T06:13:43;99997.50;;;17.44;82.26
63903;BME280;50072;50.678;13.938;2022-09-06T06:16:12;99999.84;;;17.52;83.11
63903;BME280;50072;50.678;13.938;2022-09-06T06:18:39;99991.34;;;17.59;82.54
63903;BME280;50072;50.678;13.938;2022-09-06T06:23:44;99993.88;;;17.82;82.37
63903;BME280;50072;50.678;13.938;2022-09-06T06:26:11;99994.09;;;17.96;81.94
63903;BME280;50072;50.678;13.938;2022-09-06T06:28:38;99993.41;;;18.10;81.59
63903;BME280;50072;50.678;13.938;2022-09-06T06:31:06;99995.38;;;18.24;80.99
63903;BME280;50072;50.678;13.938;2022-09-06T06:33:32;99983.13;;;18.34;79.21
63903;BME280;50072;50.678;13.938;2022-09-06T06:36:02;99988.06;;;18.43;78.17
63903;BME280;50072;50.678;13.938;2022-09-06T06:38:36;99997.22;;;18.58;76.77
63903;BME280;50072;50.678;13.938;2022-09-06T06:41:04;99987.53;;;18.70;75.56
63903;BME280;50072;50.678;13.938;2022-09-06T06:43:30;99990.72;;;18.78;75.32
63903;BME280;50072;50.678;13.938;2022-09-06T06:48:28;99996.47;;;18.90;74.25
63903;BME280;50072;50.678;13.938;2022-09-06T06:50:53;99991.75;;;18.93;73.27
63903;BME280;50072;50.678;13.938;2022-09-06T06:53:19;100001.13;;;19.04;69.86
63903;BME280;50072;50.678;13.938;2022-09-06T06:55:46;99986.91;;;19.16;68.80
63903;BME280;50072;50.678;13.938;2022-09-06T06:58:15;99993.47;;;19.28;67.31
63903;BME280;50072;50.678;13.938;2022-09-06T07:00:42;99996.44;;;19.39;66.28
63903;BME280;50072;50.678;13.938;2022-09-06T07:03:08;99991.66;;;19.44;66.05
63903;BME280;50072;50.678;13.938;2022-09-06T07:05:34;99994.91;;;19.51;65.83
63903;BME280;50072;50.678;13.938;2022-09-06T07:08:01;99989.56;;;19.65;64.41
63903;BME280;50072;50.678;13.938;2022-09-06T07:10:26;99977.59;;;19.68;64.26
63903;BME280;50072;50.678;13.938;2022-09-06T07:12:53;99984.13;;;19.81;63.86
63903;BME280;50072;50.678;13.938;2022-09-06T07:15:18;99981.66;;;19.93;63.42
63903;BME280;50072;50.678;13.938;2022-09-06T07:17:45;99988.47;;;20.00;62.76
63903;BME280;50072;50.678;13.938;2022-09-06T07:20:11;99988.91;;;20.08;61.75
63903;BME280;50072;50.678;13.938;2022-09-06T07:22:38;99991.25;;;20.14;61.89
63903;BME280;50072;50.678;13.938;2022-09-06T07:25:07;99985.19;;;20.25;60.94
63903;BME280;50072;50.678;13.938;2022-09-06T07:27:39;99987.13;;;20.38;61.85
63903;BME280;50072;50.678;13.938;2022-09-06T07:30:05;99997.78;;;20.57;62.10
63903;BME280;50072;50.678;13.938;2022-09-06T07:32:35;99982.06;;;20.76;60.70
63903;BME280;50072;50.678;13.938;2022-09-06T07:35:02;99990.25;;;20.91;61.30
63903;BME280;50072;50.678;13.938;2022-09-06T07:37:29;99994.56;;;21.09;60.78
63903;BME280;50072;50.678;13.938;2022-09-06T07:40:01;99994.72;;;21.20;57.77
63903;BME280;50072;50.678;13.938;2022-09-06T07:42:30;99990.25;;;21.34;60.20
63903;BME280;50072;50.678;13.938;2022-09-06T07:44:56;99995.59;;;21.35;57.86
63903;BME280;50072;50.678;13.938;2022-09-06T07:47:22;99992.69;;;21.24;57.59
63903;BME280;50072;50.678;13.938;2022-09-06T07:49:48;99983.81;;;21.20;57.46
63903;BME280;50072;50.678;13.938;2022-09-06T07:52:14;99980.72;;;21.27;55.72
63903;BME280;50072;50.678;13.938;2022-09-06T07:54:40;99980.31;;;21.33;56.12
63903;BME280;50072;50.678;13.938;2022-09-06T07:57:07;99973.91;;;21.34;56.90
63903;BME280;50072;50.678;13.938;2022-09-06T07:59:33;99982.72;;;21.37;56.77
63903;BME280;50072;50.678;13.938;2022-09-06T08:01:58;99983.84;;;21.35;56.37
63903;BME280;50072;50.678;13.938;2022-09-06T08:04:24;99974.22;;;21.29;56.63
63903;BME280;50072;50.678;13.938;2022-09-06T08:06:50;99978.97;;;21.26;56.36
63903;BME280;50072;50.678;13.938;2022-09-06T08:09:17;99988.31;;;21.21;57.02
63903;BME280;50072;50.678;13.938;2022-09-06T08:11:44;99983.06;;;21.18;56.90
63903;BME280;50072;50.678;13.938;2022-09-06T08:14:10;99981.91;;;21.08;56.75
63903;BME280;50072;50.678;13.938;2022-09-06T08:16:36;99991.25;;;21.04;57.21
63903;BME280;50072;50.678;13.938;2022-09-06T08:19:04;99983.06;;;21.04;56.85
63903;BME280;50072;50.678;13.938;2022-09-06T08:21:33;99980.56;;;21.01;57.20
63903;BME280;50072;50.678;13.938;2022-09-06T08:24:04;99981.31;;;21.03;57.40
63903;BME280;50072;50.678;13.938;2022-09-06T08:26:32;99982.22;;;21.03;56.94
63903;BME280;50072;50.678;13.938;2022-09-06T08:29:00;99981.50;;;21.00;56.66
63903;BME280;50072;50.678;13.938;2022-09-06T08:31:29;99972.38;;;21.01;56.74
63903;BME280;50072;50.678;13.938;2022-09-06T08:33:55;99977.63;;;21.04;56.66
63903;BME280;50072;50.678;13.938;2022-09-06T08:36:23;99980.06;;;21.09;57.42
63903;BME280;50072;50.678;13.938;2022-09-06T08:38:51;99978.22;;;21.09;56.48
63903;BME280;50072;50.678;13.938;2022-09-06T08:41:46;99983.06;;;21.18;57.35
63903;BME280;50072;50.678;13.938;2022-09-06T08:44:26;99990.06;;;21.23;56.58
63903;BME280;50072;50.678;13.938;2022-09-06T08:49:36;99977.00;;;21.42;56.90
63903;BME280;50072;50.678;13.938;2022-09-06T09:01:00;99965.94;;;22.00;54.93
63903;BME280;50072;50.678;13.938;2022-09-06T09:03:38;99964.44;;;22.09;54.69
63903;BME280;50072;50.678;13.938;2022-09-06T09:06:07;99962.06;;;22.17;54.30
63903;BME280;50072;50.678;13.938;2022-09-06T09:11:05;99957.59;;;22.16;53.75
63903;BME280;50072;50.678;13.938;2022-09-06T09:13:54;99957.03;;;22.64;51.53
63903;BME280;50072;50.678;13.938;2022-09-06T09:16:24;99951.72;;;23.38;50.98
63903;BME280;50072;50.678;13.938;2022-09-06T09:18:51;99944.81;;;23.45;52.03
63903;BME280;50072;50.678;13.938;2022-09-06T09:21:22;99949.84;;;23.75;50.49
63903;BME280;50072;50.678;13.938;2022-09-06T09:23:56;99952.06;;;24.77;46.92
63903;BME280;50072;50.678;13.938;2022-09-06T09:26:25;99942.88;;;25.12;46.73
63903;BME280;50072;50.678;13.938;2022-09-06T09:34:01;99936.41;;;25.47;46.57
63903;BME280;50072;50.678;13.938;2022-09-06T09:36:30;99938.03;;;26.47;45.43
63903;BME280;50072;50.678;13.938;2022-09-06T09:38:57;99935.63;;;27.36;42.92
63903;BME280;50072;50.678;13.938;2022-09-06T09:41:30;99935.13;;;27.72;39.21
63903;BME280;50072;50.678;13.938;2022-09-06T09:44:02;99916.03;;;28.29;39.92
63903;BME280;50072;50.678;13.938;2022-09-06T09:46:34;99921.44;;;28.78;37.90
63903;BME280;50072;50.678;13.938;2022-09-06T09:49:10;99915.16;;;29.51;37.43
63903;BME280;50072;50.678;13.938;2022-09-06T09:51:41;99914.03;;;29.90;34.46
63903;BME280;50072;50.678;13.938;2022-09-06T09:54:11;99906.00;;;29.97;35.39
63903;BME280;50072;50.678;13.938;2022-09-06T10:02:23;99904.84;;;31.30;32.24
63903;BME280;50072;50.678;13.938;2022-09-06T10:04:52;99896.81;;;31.03;34.66
63903;BME280;50072;50.678;13.938;2022-09-06T10:07:21;99888.56;;;30.58;34.78
63903;BME280;50072;50.678;13.938;2022-09-06T10:09:57;99886.75;;;30.67;34.88
63903;BME280;50072;50.678;13.938;2022-09-06T10:12:35;99890.81;;;31.15;34.32
63903;BME280;50072;50.678;13.938;2022-09-06T10:15:05;99883.03;;;30.85;32.95
63903;BME280;50072;50.678;13.938;2022-09-06T10:17:34;99881.84;;;30.61;35.39
63903;BME280;50072;50.678;13.938;2022-09-06T10:20:08;99888.59;;;31.27;34.21
63903;BME280;50072;50.678;13.938;2022-09-06T10:25:38;99875.25;;;32.48;31.73
63903;BME280;50072;50.678;13.938;2022-09-06T10:28:40;99872.16;;;31.85;30.66
63903;BME280;50072;50.678;13.938;2022-09-06T10:31:25;99868.63;;;31.50;33.68
63903;BME280;50072;50.678;13.938;2022-09-06T10:37:11;99861.78;;;30.51;32.72
63903;BME280;50072;50.678;13.938;2022-09-06T10:42:25;99857.13;;;29.71;34.48
63903;BME280;50072;50.678;13.938;2022-09-06T10:47:54;99854.84;;;29.20;37.04
63903;BME280;50072;50.678;13.938;2022-09-06T10:50:26;99866.13;;;28.99;36.85
63903;BME280;50072;50.678;13.938;2022-09-06T10:52:53;99855.00;;;28.44;38.61
63903;BME280;50072;50.678;13.938;2022-09-06T10:55:21;99853.19;;;27.95;38.53
63903;BME280;50072;50.678;13.938;2022-09-06T10:57:55;99851.59;;;27.93;39.15
63903;BME280;50072;50.678;13.938;2022-09-06T11:00:21;99848.69;;;27.94;38.92
63903;BME280;50072;50.678;13.938;2022-09-06T11:03:14;99847.38;;;27.59;39.27
63903;BME280;50072;50.678;13.938;2022-09-06T11:05:46;99847.38;;;27.40;40.27
63903;BME280;50072;50.678;13.938;2022-09-06T11:08:23;99843.22;;;27.55;40.65
63903;BME280;50072;50.678;13.938;2022-09-06T11:10:51;99844.06;;;28.04;40.32
63903;BME280;50072;50.678;13.938;2022-09-06T11:13:21;99846.69;;;28.63;39.99
63903;BME280;50072;50.678;13.938;2022-09-06T11:15:54;99850.66;;;28.88;39.83
63903;BME280;50072;50.678;13.938;2022-09-06T11:24:28;99843.09;;;29.46;37.09
63903;BME280;50072;50.678;13.938;2022-09-06T11:27:26;99840.47;;;29.81;37.71
63903;BME280;50072;50.678;13.938;2022-09-06T11:30:00;99836.22;;;30.04;36.51
63903;BME280;50072;50.678;13.938;2022-09-06T11:32:38;99825.03;;;30.06;35.91
63903;BME280;50072;50.678;13.938;2022-09-06T11:35:20;99834.72;;;29.74;35.92
63903;BME280;50072;50.678;13.938;2022-09-06T11:37:47;99822.59;;;29.67;35.94
63903;BME280;50072;50.678;13.938;2022-09-06T11:40:24;99817.69;;;29.78;35.66
63903;BME280;50072;50.678;13.938;2022-09-06T11:47:50;99814.75;;;30.69;34.55
63903;BME280;50072;50.678;13.938;2022-09-06T11:53:23;99808.59;;;31.42;33.17
63903;BME280;50072;50.678;13.938;2022-09-06T11:56:50;99802.75;;;32.28;32.66
63903;BME280;50072;50.678;13.938;2022-09-06T12:04:21;99805.31;;;32.46;32.18
63903;BME280;50072;50.678;13.938;2022-09-06T12:07:08;99793.13;;;32.15;31.88
63903;BME280;50072;50.678;13.938;2022-09-06T12:09:40;99795.03;;;31.65;32.34
63903;BME280;50072;50.678;13.938;2022-09-06T12:12:07;99798.28;;;31.69;34.39
63903;BME280;50072;50.678;13.938;2022-09-06T12:14:43;99785.50;;;32.01;32.98
63903;BME280;50072;50.678;13.938;2022-09-06T12:19:40;99783.72;;;31.50;34.03
63903;BME280;50072;50.678;13.938;2022-09-06T12:27:50;99783.94;;;28.57;38.03
63903;BME280;50072;50.678;13.938;2022-09-06T12:30:39;99775.03;;;27.78;39.32
63903;BME280;50072;50.678;13.938;2022-09-06T12:33:34;99764.31;;;27.16;40.89
63903;BME280;50072;50.678;13.938;2022-09-06T12:36:19;99773.50;;;26.86;41.45
63903;BME280;50072;50.678;13.938;2022-09-06T12:39:22;99770.84;;;26.34;42.79
63903;BME280;50072;50.678;13.938;2022-09-06T12:41:51;99767.72;;;25.96;43.34
63903;BME280;50072;50.678;13.938;2022-09-06T12:44:40;99753.63;;;25.59;44.29
63903;BME280;50072;50.678;13.938;2022-09-06T12:49:45;99757.19;;;25.06;45.22
63903;BME280;50072;50.678;13.938;2022-09-06T12:52:18;99767.81;;;24.88;46.06
63903;BME280;50072;50.678;13.938;2022-09-06T12:54:47;99774.81;;;24.69;46.70
63903;BME280;50072;50.678;13.938;2022-09-06T12:57:20;99769.69;;;24.53;46.93
63903;BME280;50072;50.678;13.938;2022-09-06T12:59:56;99769.19;;;24.37;47.83
63903;BME280;50072;50.678;13.938;2022-09-06T13:02:34;99770.69;;;24.18;48.49
63903;BME280;50072;50.678;13.938;2022-09-06T13:05:06;99781.59;;;24.07;48.83
63903;BME280;50072;50.678;13.938;2022-09-06T13:07:40;99767.91;;;23.95;48.98
63903;BME280;50072;50.678;13.938;2022-09-06T13:10:09;99770.59;;;23.84;49.50
63903;BME280;50072;50.678;13.938;2022-09-06T13:12:42;99776.06;;;23.73;50.15
63903;BME280;50072;50.678;13.938;2022-09-06T13:17:44;99788.19;;;23.57;50.04
63903;BME280;50072;50.678;13.938;2022-09-06T13:20:22;99793.50;;;23.48;50.67
63903;BME280;50072;50.678;13.938;2022-09-06T13:22:50;99789.59;;;23.39;50.69
63903;BME280;50072;50.678;13.938;2022-09-06T13:27:49;99792.28;;;23.27;51.81
63903;BME280;50072;50.678;13.938;2022-09-06T13:30:41;99789.03;;;23.22;52.96
63903;BME280;50072;50.678;13.938;2022-09-06T13:33:25;99789.75;;;23.13;52.96
63903;BME280;50072;50.678;13.938;2022-09-06T13:41:05;99778.41;;;22.93;55.44
63903;BME280;50072;50.678;13.938;2022-09-06T13:43:42;99785.31;;;22.86;59.10
63903;BME280;50072;50.678;13.938;2022-09-06T13:46:09;99778.91;;;22.74;58.26
63903;BME280;50072;50.678;13.938;2022-09-06T13:48:36;99776.75;;;22.67;59.34
63903;BME280;50072;50.678;13.938;2022-09-06T13:51:06;99784.84;;;22.55;62.66
63903;BME280;50072;50.678;13.938;2022-09-06T13:53:33;99791.31;;;22.41;62.17
63903;BME280;50072;50.678;13.938;2022-09-06T13:55:59;99792.94;;;22.31;64.47
63903;BME280;50072;50.678;13.938;2022-09-06T13:58:27;99799.59;;;22.14;66.89
63903;BME280;50072;50.678;13.938;2022-09-06T14:00:55;99803.84;;;21.93;68.69
63903;BME280;50072;50.678;13.938;2022-09-06T14:03:29;99808.31;;;21.81;74.37
63903;BME280;50072;50.678;13.938;2022-09-06T14:05:56;99806.44;;;21.68;73.16
63903;BME280;50072;50.678;13.938;2022-09-06T14:08:22;99811.63;;;21.59;75.53
63903;BME280;50072;50.678;13.938;2022-09-06T14:10:49;99806.22;;;21.44;77.60
63903;BME280;50072;50.678;13.938;2022-09-06T14:13:17;99813.16;;;21.35;77.13
63903;BME280;50072;50.678;13.938;2022-09-06T14:15:45;99814.78;;;21.25;77.89
63903;BME280;50072;50.678;13.938;2022-09-06T14:18:11;99808.28;;;21.13;78.68
63903;BME280;50072;50.678;13.938;2022-09-06T14:20:37;99811.44;;;21.07;77.89
63903;BME280;50072;50.678;13.938;2022-09-06T14:23:03;99812.81;;;21.00;78.75
63903;BME280;50072;50.678;13.938;2022-09-06T14:25:30;99809.72;;;20.92;79.21
63903;BME280;50072;50.678;13.938;2022-09-06T14:27:56;99805.97;;;20.80;78.89
63903;BME280;50072;50.678;13.938;2022-09-06T14:30:22;99799.94;;;20.75;80.70
63903;BME280;50072;50.678;13.938;2022-09-06T14:32:47;99805.69;;;20.70;82.08
63903;BME280;50072;50.678;13.938;2022-09-06T14:35:14;99813.22;;;20.65;84.03
63903;BME280;50072;50.678;13.938;2022-09-06T14:37:40;99810.91;;;20.59;81.29
63903;BME280;50072;50.678;13.938;2022-09-06T14:40:24;99815.00;;;20.51;84.21
63903;BME280;50072;50.678;13.938;2022-09-06T14:42:51;99809.97;;;20.45;82.37
63903;BME280;50072;50.678;13.938;2022-09-06T14:45:17;99810.94;;;20.44;82.81
63903;BME280;50072;50.678;13.938;2022-09-06T14:47:44;99802.78;;;20.44;84.71
63903;BME280;50072;50.678;13.938;2022-09-06T14:50:10;99808.81;;;20.49;84.85
63903;BME280;50072;50.678;13.938;2022-09-06T14:52:37;99806.75;;;20.53;84.07